Time;durP1;ratioP1;P1;durP2;ratioP2;P2;SDS_P1;SDS_P2;PMS_P1;PMS_P2;Temp;Humidity;BMP_temperature;BMP_pressure;BME280_temperature;BME280_humidity;BME280_pressure;Samples;Min_cycle;Max_cycle;Signal;HPM_P1;HPM_P2
2021/01/26 00:00:50;;;;;;;24.67;15.97;;;-2.30;99.90;;;;;;4971610;28;20230;-82
2021/01/26 00:03:17;;;;;;;24.03;15.43;;;-2.40;99.90;;;;;;4971503;28;20207;-81
2021/01/26 00:05:44;;;;;;;25.33;15.83;;;-2.50;99.90;;;;;;4972253;28;20298;-82
2021/01/26 00:08:10;;;;;;;25.53;15.60;;;-2.40;99.90;;;;;;4972591;28;20233;-82
2021/01/26 00:10:37;;;;;;;25.27;16.20;;;-2.40;99.90;;;;;;4972057;28;20211;-82
2021/01/26 00:13:06;;;;;;;24.40;15.57;;;-2.50;99.90;;;;;;4972151;28;20572;-82
2021/01/26 00:15:32;;;;;;;28.17;16.20;;;-2.50;99.90;;;;;;4971305;28;20244;-82
2021/01/26 00:18:05;;;;;;;26.70;15.87;;;-2.50;99.90;;;;;;4971540;28;20265;-81
2021/01/26 00:20:31;;;;;;;27.00;17.03;;;-2.60;99.90;;;;;;4971826;28;20210;-81
2021/01/26 00:22:58;;;;;;;28.77;17.30;;;-2.50;99.90;;;;;;4971964;28;20229;-82
2021/01/26 00:25:28;;;;;;;27.77;16.87;;;-2.50;99.90;;;;;;4971889;28;20206;-81
2021/01/26 00:27:55;;;;;;;26.37;16.20;;;-2.50;99.90;;;;;;4971998;28;20280;-81
2021/01/26 00:30:25;;;;;;;25.90;16.50;;;-2.50;99.90;;;;;;4972183;28;20249;-82
2021/01/26 00:32:51;;;;;;;27.70;16.90;;;-2.50;99.90;;;;;;4971355;28;20227;-81
2021/01/26 00:35:22;;;;;;;28.50;16.60;;;-2.60;99.90;;;;;;4971787;28;20238;-82
2021/01/26 00:37:48;;;;;;;27.23;17.17;;;-2.60;99.90;;;;;;4971911;28;20321;-81
2021/01/26 00:40:16;;;;;;;28.63;17.37;;;-2.50;99.90;;;;;;4971617;28;20191;-82
2021/01/26 00:42:43;;;;;;;28.40;17.13;;;-2.50;99.90;;;;;;4971474;28;20230;-82
2021/01/26 00:45:10;;;;;;;27.13;17.40;;;-2.50;99.90;;;;;;4972200;28;20238;-82
2021/01/26 00:47:37;;;;;;;24.87;16.07;;;-2.40;99.90;;;;;;4971229;28;20301;-81
2021/01/26 00:50:07;;;;;;;26.43;16.77;;;-2.40;99.90;;;;;;4975918;28;20222;-82
2021/01/26 00:52:34;;;;;;;27.50;17.30;;;-2.50;99.90;;;;;;4970909;28;20244;-82
2021/01/26 00:55:00;;;;;;;29.53;16.87;;;-2.60;99.90;;;;;;4971745;28;20209;-81
2021/01/26 00:57:27;;;;;;;29.07;17.03;;;-2.70;99.90;;;;;;4971279;28;20237;-82
2021/01/26 00:59:53;;;;;;;26.93;16.53;;;-2.80;99.90;;;;;;4971297;28;20206;-82
2021/01/26 01:02:20;;;;;;;26.20;16.97;;;-2.70;99.90;;;;;;4970725;28;20237;-81
2021/01/26 01:04:48;;;;;;;31.20;18.70;;;-2.70;99.90;;;;;;4971556;28;20203;-81
2021/01/26 01:07:15;;;;;;;27.10;16.97;;;-2.70;99.90;;;;;;4971234;28;20603;-82
2021/01/26 01:09:42;;;;;;;27.97;17.43;;;-2.70;99.90;;;;;;4970554;28;20648;-81
2021/01/26 01:12:09;;;;;;;27.80;17.00;;;-2.70;99.90;;;;;;4952453;28;20688;-81
2021/01/26 01:14:35;;;;;;;26.47;16.87;;;-2.80;99.90;;;;;;4967504;28;20272;-81
2021/01/26 01:17:02;;;;;;;28.13;17.10;;;-2.80;99.90;;;;;;4970842;28;20322;-82
2021/01/26 01:19:28;;;;;;;26.27;16.67;;;-2.80;99.90;;;;;;5000339;28;20260;-81
2021/01/26 01:21:55;;;;;;;22.03;15.30;;;-2.80;99.90;;;;;;4971001;28;20264;-81
2021/01/26 01:24:22;;;;;;;23.30;16.13;;;-2.80;99.90;;;;;;4971064;28;20241;-81
2021/01/26 01:26:49;;;;;;;25.67;15.90;;;-2.80;99.90;;;;;;4970873;28;20681;-81
2021/01/26 01:29:16;;;;;;;26.93;15.33;;;-2.90;99.90;;;;;;4970902;28;20636;-81
2021/01/26 01:31:42;;;;;;;23.40;15.63;;;-2.90;99.90;;;;;;4970781;28;20230;-81
2021/01/26 01:34:08;;;;;;;22.30;14.33;;;-3.00;99.90;;;;;;4971032;28;20827;-82
2021/01/26 01:36:35;;;;;;;26.23;14.27;;;-3.20;99.90;;;;;;4970887;28;20198;-81
2021/01/26 01:39:03;;;;;;;21.13;14.30;;;-3.20;99.90;;;;;;4970483;28;20238;-82
2021/01/26 01:41:30;;;;;;;24.77;13.97;;;-3.10;99.90;;;;;;4970886;28;20213;-81
2021/01/26 01:43:57;;;;;;;21.70;13.70;;;-3.00;99.90;;;;;;4971061;28;20237;-81
2021/01/26 01:46:24;;;;;;;20.07;13.47;;;-2.90;99.90;;;;;;4970713;28;20230;-80
2021/01/26 01:48:54;;;;;;;20.90;13.40;;;-2.90;99.90;;;;;;4970446;28;20285;-81
2021/01/26 01:51:24;;;;;;;21.80;14.13;;;-2.90;99.90;;;;;;4970519;28;20237;-81
2021/01/26 01:53:54;;;;;;;20.53;13.10;;;-2.80;99.90;;;;;;4970611;28;20206;-81
2021/01/26 01:56:29;;;;;;;20.43;13.90;;;-2.80;99.90;;;;;;4970408;28;20241;-80
2021/01/26 01:59:01;;;;;;;23.97;15.20;;;-2.80;99.90;;;;;;4970472;28;20648;-80
2021/01/26 02:01:30;;;;;;;22.57;14.23;;;-2.80;99.90;;;;;;4970624;28;20620;-81
2021/01/26 02:04:00;;;;;;;25.27;14.80;;;-2.90;99.90;;;;;;4969799;28;20222;-81
2021/01/26 02:06:30;;;;;;;21.70;14.63;;;-2.90;99.90;;;;;;4970474;28;20712;-81
2021/01/26 02:09:02;;;;;;;26.23;15.73;;;-2.90;99.90;;;;;;4970162;28;20660;-80
2021/01/26 02:11:29;;;;;;;23.63;15.53;;;-2.90;99.90;;;;;;4970494;28;20201;-81
2021/01/26 02:13:56;;;;;;;25.60;16.73;;;-2.80;99.90;;;;;;4970053;28;20230;-81
2021/01/26 02:16:33;;;;;;;21.77;15.70;;;-2.80;99.90;;;;;;4969884;28;20209;-80
2021/01/26 02:19:35;;;;;;;25.40;15.37;;;-2.80;99.90;;;;;;4969523;28;20283;-81
2021/01/26 02:22:51;;;;;;;24.73;14.87;;;-2.90;99.90;;;;;;4970309;28;20208;-81
2021/01/26 02:25:40;;;;;;;24.90;14.73;;;-3.00;99.90;;;;;;4910857;29;20304;-80
2021/01/26 02:28:32;;;;;;;25.27;15.40;;;-3.00;99.90;;;;;;4900216;28;20311;-81
2021/01/26 02:31:33;;;;;;;23.47;15.10;;;-3.00;99.90;;;;;;4910668;29;20288;-81
2021/01/26 02:35:04;;;;;;;22.43;14.47;;;-3.10;99.90;;;;;;4907451;28;20235;-81
2021/01/26 02:38:15;;;;;;;19.10;13.17;;;-3.10;99.90;;;;;;4910082;29;20200;-81
2021/01/26 02:40:49;;;;;;;21.87;13.47;;;-3.10;99.90;;;;;;4910832;29;20281;-81
2021/01/26 02:43:43;;;;;;;20.97;13.33;;;-3.10;99.90;;;;;;4910594;28;20263;-81
2021/01/26 02:46:24;;;;;;;22.10;13.40;;;-3.10;99.90;;;;;;4910449;29;20240;-81
2021/01/26 02:49:00;;;;;;;20.60;13.77;;;-3.00;99.90;;;;;;4910166;29;20305;-80
2021/01/26 02:51:34;;;;;;;22.80;13.77;;;-3.10;99.90;;;;;;4910080;29;20209;-80
2021/01/26 02:54:06;;;;;;;22.10;13.73;;;-3.10;99.90;;;;;;4910407;29;20247;-80
2021/01/26 02:56:40;;;;;;;18.70;12.90;;;-3.10;99.90;;;;;;4956325;28;20243;-81
2021/01/26 02:59:18;;;;;;;18.80;12.90;;;-3.10;99.90;;;;;;4970055;28;20618;-81
2021/01/26 03:01:48;;;;;;;21.57;13.47;;;-3.00;99.90;;;;;;4969531;28;20698;-80
2021/01/26 03:04:20;;;;;;;17.70;12.47;;;-3.00;99.90;;;;;;4969706;28;20706;-81
2021/01/26 03:06:51;;;;;;;19.70;13.27;;;-3.00;99.90;;;;;;4970434;28;20221;-81
2021/01/26 03:09:23;;;;;;;20.10;13.33;;;-3.00;99.90;;;;;;4969803;28;20312;-81
2021/01/26 03:11:54;;;;;;;21.23;13.80;;;-2.90;99.90;;;;;;4969180;28;20265;-81
2021/01/26 03:14:29;;;;;;;21.33;13.77;;;-2.80;99.90;;;;;;4970636;28;20617;-81
2021/01/26 03:17:09;;;;;;;19.73;13.80;;;-2.80;99.90;;;;;;4972234;28;20236;-81
2021/01/26 03:19:39;;;;;;;21.40;14.00;;;-2.80;99.90;;;;;;5053689;28;20238;-81
2021/01/26 03:22:08;;;;;;;21.57;14.17;;;-2.70;99.90;;;;;;4972975;28;20222;-81
2021/01/26 03:24:39;;;;;;;18.60;13.93;;;-2.70;99.90;;;;;;4972565;28;20230;-80
2021/01/26 03:27:10;;;;;;;19.20;13.90;;;-2.80;99.90;;;;;;4971737;28;20238;-79
2021/01/26 03:29:39;;;;;;;22.80;13.53;;;-2.70;99.90;;;;;;4972469;28;20276;-81
2021/01/26 03:32:10;;;;;;;21.30;15.00;;;-2.70;99.90;;;;;;4972423;28;20250;-79
2021/01/26 03:34:37;;;;;;;25.67;15.47;;;-2.80;99.90;;;;;;4972962;28;20288;-80
2021/01/26 03:37:05;;;;;;;23.50;15.83;;;-2.70;99.90;;;;;;4972757;28;20259;-80
2021/01/26 03:39:31;;;;;;;24.50;15.53;;;-2.60;99.90;;;;;;4972281;28;20230;-80
2021/01/26 03:41:59;;;;;;;23.77;15.53;;;-2.50;99.90;;;;;;4972133;28;20289;-79
2021/01/26 03:44:26;;;;;;;26.10;15.63;;;-2.50;99.90;;;;;;4972389;28;20240;-79
2021/01/26 03:47:19;;;;;;;23.47;15.73;;;-2.40;99.90;;;;;;4972510;28;20238;-79
2021/01/26 03:50:03;;;;;;;31.63;17.60;;;-2.40;99.90;;;;;;4972256;28;20627;-81
2021/01/26 03:52:45;;;;;;;25.70;16.40;;;-2.40;99.90;;;;;;4956287;28;20577;-80
2021/01/26 03:55:18;;;;;;;28.17;16.50;;;-2.30;99.90;;;;;;4972449;28;20195;-81
2021/01/26 03:57:58;;;;;;;21.20;14.90;;;-2.30;99.90;;;;;;4972091;28;20667;-81
2021/01/26 04:00:34;;;;;;;23.00;15.43;;;-2.20;99.90;;;;;;4972263;28;20237;-81
2021/01/26 04:03:22;;;;;;;24.03;15.37;;;-2.10;99.90;;;;;;4968531;28;20229;-80
2021/01/26 04:05:55;;;;;;;25.50;15.67;;;-2.00;99.90;;;;;;4971741;28;20291;-81
2021/01/26 04:08:28;;;;;;;26.50;17.70;;;-2.00;99.90;;;;;;4972317;28;20285;-81
2021/01/26 04:11:02;;;;;;;26.90;15.90;;;-2.00;99.90;;;;;;4971849;28;20272;-80
2021/01/26 04:13:34;;;;;;;27.10;17.13;;;-2.00;99.90;;;;;;4971885;28;20687;-81
2021/01/26 04:16:02;;;;;;;26.20;16.60;;;-1.90;99.90;;;;;;4972103;28;20230;-81
2021/01/26 04:18:35;;;;;;;28.83;17.00;;;-1.90;99.90;;;;;;5003779;28;20258;-81
2021/01/26 04:21:05;;;;;;;26.20;16.23;;;-1.90;99.90;;;;;;4971961;28;20226;-81
2021/01/26 04:23:32;;;;;;;26.40;15.53;;;-1.80;99.90;;;;;;4972476;28;20203;-81
2021/01/26 04:26:05;;;;;;;22.47;14.67;;;-1.70;99.90;;;;;;4971744;28;20230;-80
2021/01/26 04:28:36;;;;;;;19.50;14.23;;;-1.60;99.90;;;;;;4972378;28;20313;-81
2021/01/26 04:31:06;;;;;;;19.17;13.23;;;-1.50;99.90;;;;;;4971613;28;20723;-81
2021/01/26 04:33:33;;;;;;;17.23;11.83;;;-1.50;99.90;;;;;;4971821;28;20229;-80
2021/01/26 04:36:00;;;;;;;24.07;12.87;;;-1.40;99.90;;;;;;4971848;28;20237;-81
2021/01/26 04:38:26;;;;;;;17.10;11.33;;;-1.30;99.90;;;;;;4972074;28;20230;-81
2021/01/26 04:40:55;;;;;;;17.07;11.20;;;-1.10;99.90;;;;;;4970310;28;20693;-81
2021/01/26 04:43:30;;;;;;;21.27;11.83;;;-1.10;99.90;;;;;;4971747;28;20242;-81
2021/01/26 04:46:07;;;;;;;22.63;11.50;;;-1.00;99.90;;;;;;4971791;28;20199;-81
2021/01/26 04:48:42;;;;;;;20.73;10.83;;;-0.60;99.90;;;;;;4971668;28;20278;-81
2021/01/26 04:51:17;;;;;;;15.23;9.47;;;-0.60;99.90;;;;;;4971334;28;20236;-80
2021/01/26 04:54:08;;;;;;;20.47;10.60;;;-0.60;99.90;;;;;;4971610;28;20215;-80
2021/01/26 04:56:40;;;;;;;15.10;9.23;;;-0.40;99.90;;;;;;4971746;28;20246;-81
2021/01/26 04:59:24;;;;;;;13.17;8.10;;;-0.30;99.90;;;;;;4971508;28;20207;-81
2021/01/26 05:02:14;;;;;;;13.23;8.10;;;-0.20;99.90;;;;;;4971635;28;20227;-81
2021/01/26 05:04:44;;;;;;;12.03;7.90;;;-0.20;99.90;;;;;;4971444;28;20291;-80
2021/01/26 05:07:16;;;;;;;17.20;8.27;;;-0.10;99.90;;;;;;4970603;28;20236;-81
2021/01/26 05:09:49;;;;;;;14.83;8.40;;;-0.20;99.90;;;;;;4970030;28;20225;-81
2021/01/26 05:12:18;;;;;;;11.57;8.63;;;-0.20;99.90;;;;;;4971085;28;20243;-81
2021/01/26 05:14:49;;;;;;;16.23;9.17;;;-0.10;99.90;;;;;;4971051;28;20250;-81
2021/01/26 05:17:22;;;;;;;13.83;9.00;;;0.10;99.90;;;;;;4970731;28;20268;-81
2021/01/26 05:19:56;;;;;;;15.47;9.57;;;0.10;99.90;;;;;;4971354;28;20258;-81
2021/01/26 05:22:28;;;;;;;17.43;9.10;;;0.20;99.90;;;;;;4970911;28;20219;-81
2021/01/26 05:25:03;;;;;;;16.13;9.20;;;0.20;99.90;;;;;;4970282;28;20208;-81
2021/01/26 05:27:30;;;;;;;14.83;9.60;;;0.20;99.90;;;;;;4971181;28;20629;-81
2021/01/26 05:29:57;;;;;;;15.67;10.07;;;0.10;99.90;;;;;;4970802;28;20233;-81
2021/01/26 05:32:26;;;;;;;15.93;10.03;;;0.00;99.90;;;;;;4970877;28;20716;-81
2021/01/26 05:34:54;;;;;;;14.63;9.57;;;0.00;99.90;;;;;;4970860;28;20633;-82
2021/01/26 05:37:22;;;;;;;15.13;9.53;;;0.00;99.90;;;;;;4969780;28;20204;-82
2021/01/26 05:39:52;;;;;;;14.67;9.63;;;-0.10;99.90;;;;;;4971253;28;20641;-81
2021/01/26 05:42:20;;;;;;;14.63;9.87;;;-0.20;99.90;;;;;;4970095;28;20640;-81
2021/01/26 05:44:50;;;;;;;17.83;10.13;;;-0.20;99.90;;;;;;4971042;28;20205;-81
2021/01/26 05:47:24;;;;;;;16.03;10.53;;;0.00;99.90;;;;;;4970287;28;20681;-81
2021/01/26 05:49:51;;;;;;;18.40;10.60;;;-0.10;99.90;;;;;;4970557;28;20745;-81
2021/01/26 05:52:19;;;;;;;22.37;11.37;;;0.00;99.90;;;;;;4970407;28;20274;-81
2021/01/26 05:54:50;;;;;;;16.73;11.23;;;0.00;99.90;;;;;;4970765;28;20234;-81
2021/01/26 05:57:28;;;;;;;16.47;11.40;;;0.20;99.90;;;;;;4970112;28;20633;-81
2021/01/26 06:00:19;;;;;;;20.63;11.23;;;0.30;99.90;;;;;;4970564;28;20236;-81
2021/01/26 06:02:47;;;;;;;17.43;11.43;;;0.30;99.90;;;;;;4970910;28;20413;-81
2021/01/26 06:05:18;;;;;;;18.53;11.53;;;0.40;99.90;;;;;;4970516;28;20204;-80
2021/01/26 06:08:02;;;;;;;18.33;12.30;;;0.30;99.90;;;;;;4970627;28;20247;-79
2021/01/26 06:10:31;;;;;;;16.73;11.40;;;0.40;99.90;;;;;;4970882;28;20214;-80
2021/01/26 06:12:58;;;;;;;19.63;12.33;;;0.40;99.90;;;;;;4970211;28;20669;-80
2021/01/26 06:15:28;;;;;;;18.73;11.63;;;0.40;99.90;;;;;;4970225;28;20224;-79
2021/01/26 06:18:12;;;;;;;17.67;11.70;;;0.30;99.90;;;;;;4980379;28;20259;-80
2021/01/26 06:20:40;;;;;;;17.67;11.80;;;0.30;99.90;;;;;;4985230;28;20229;-79
2021/01/26 06:23:28;;;;;;;21.77;12.33;;;0.40;99.90;;;;;;4969992;28;20282;-79
2021/01/26 06:26:00;;;;;;;16.60;12.33;;;0.40;99.90;;;;;;4970364;28;20619;-81
2021/01/26 06:29:00;;;;;;;16.77;11.70;;;0.40;99.90;;;;;;4969627;28;20238;-79
2021/01/26 06:31:42;;;;;;;19.80;12.70;;;0.40;99.90;;;;;;4948714;28;20241;-80
2021/01/26 06:34:25;;;;;;;18.93;12.30;;;0.50;99.90;;;;;;4951175;28;20264;-80
2021/01/26 06:37:13;;;;;;;17.40;11.93;;;0.50;99.90;;;;;;4959601;28;20288;-78
2021/01/26 06:40:18;;;;;;;23.27;12.53;;;0.40;99.90;;;;;;4969814;28;20614;-81
2021/01/26 06:42:58;;;;;;;16.83;11.83;;;0.40;99.90;;;;;;4968928;28;20290;-79
2021/01/26 06:45:35;;;;;;;18.03;12.40;;;0.40;99.90;;;;;;4970137;28;20237;-80
2021/01/26 06:48:25;;;;;;;19.80;13.07;;;0.50;99.90;;;;;;4970491;28;20345;-80
2021/01/26 06:51:29;;;;;;;17.13;11.67;;;0.60;99.90;;;;;;4971625;28;20289;-81
2021/01/26 06:54:06;;;;;;;17.10;11.57;;;0.60;99.90;;;;;;4972773;28;20282;-82
2021/01/26 06:57:07;;;;;;;17.83;11.33;;;0.70;99.90;;;;;;4972815;28;20202;-80
2021/01/26 07:00:11;;;;;;;15.90;11.07;;;0.80;99.90;;;;;;4964445;28;20646;-80
2021/01/26 07:03:11;;;;;;;17.87;11.33;;;0.90;99.90;;;;;;4981726;28;20809;-78
2021/01/26 07:06:02;;;;;;;15.83;11.53;;;0.80;99.90;;;;;;4988182;28;20241;-79
2021/01/26 07:09:14;;;;;;;16.67;11.07;;;0.80;99.90;;;;;;4971682;28;20620;-78
2021/01/26 07:12:28;;;;;;;16.67;11.30;;;0.80;99.90;;;;;;4972130;28;20237;-78
2021/01/26 07:15:29;;;;;;;16.70;11.33;;;0.90;99.90;;;;;;4972370;28;20290;-78
2021/01/26 07:18:13;;;;;;;17.17;11.13;;;0.80;99.90;;;;;;4968551;28;20229;-78
2021/01/26 07:20:50;;;;;;;16.57;10.67;;;0.90;99.90;;;;;;4973151;28;20237;-78
2021/01/26 07:23:31;;;;;;;16.43;11.27;;;1.00;99.90;;;;;;4972965;28;20233;-78
2021/01/26 07:26:19;;;;;;;18.13;10.80;;;0.90;99.90;;;;;;4953328;28;20656;-79
2021/01/26 07:29:20;;;;;;;15.00;10.93;;;0.90;99.90;;;;;;4960866;28;20278;-78
2021/01/26 07:31:50;;;;;;;18.90;12.00;;;1.00;99.90;;;;;;4960950;28;20248;-78
2021/01/26 07:34:23;;;;;;;17.43;10.93;;;0.90;99.90;;;;;;4972036;28;20283;-78
2021/01/26 07:36:55;;;;;;;14.30;10.97;;;0.90;99.90;;;;;;4972597;28;20239;-79
2021/01/26 07:39:30;;;;;;;16.60;11.47;;;0.90;99.90;;;;;;4972244;28;20753;-80
2021/01/26 07:42:03;;;;;;;18.17;11.87;;;0.90;99.90;;;;;;4972150;28;20235;-81
2021/01/26 07:44:39;;;;;;;16.50;12.07;;;0.90;99.90;;;;;;4953455;28;20267;-80
2021/01/26 07:47:19;;;;;;;18.47;11.63;;;0.90;99.90;;;;;;4971571;28;20228;-79
2021/01/26 07:49:54;;;;;;;20.80;12.33;;;0.80;99.90;;;;;;4958632;28;20256;-80
2021/01/26 07:52:28;;;;;;;21.57;11.93;;;0.80;99.90;;;;;;4971968;28;20231;-80
2021/01/26 07:55:03;;;;;;;19.47;12.10;;;0.80;99.90;;;;;;4972525;28;20213;-80
2021/01/26 07:57:40;;;;;;;18.67;11.50;;;0.80;99.90;;;;;;4972654;28;20658;-81
2021/01/26 08:00:10;;;;;;;18.30;12.10;;;0.80;99.90;;;;;;4970798;28;20203;-80
2021/01/26 08:02:41;;;;;;;17.63;11.93;;;0.90;99.90;;;;;;4964680;28;20575;-80
2021/01/26 08:05:12;;;;;;;20.03;12.60;;;1.00;99.90;;;;;;4971388;28;20258;-80
2021/01/26 08:07:39;;;;;;;18.53;12.03;;;1.00;99.90;;;;;;4966573;28;20288;-80
2021/01/26 08:10:15;;;;;;;19.47;12.60;;;1.00;99.90;;;;;;4971454;28;20351;-80
2021/01/26 08:12:45;;;;;;;18.83;12.00;;;1.00;99.90;;;;;;4958511;28;20694;-80
2021/01/26 08:15:15;;;;;;;20.50;12.83;;;1.00;99.90;;;;;;4972176;28;20694;-80
2021/01/26 08:17:43;;;;;;;19.70;12.60;;;1.00;99.90;;;;;;5000602;28;20248;-79
2021/01/26 08:20:14;;;;;;;21.33;12.23;;;1.10;99.90;;;;;;4970181;28;20775;-80
2021/01/26 08:22:47;;;;;;;18.47;11.93;;;1.10;99.90;;;;;;4970135;28;20242;-78
2021/01/26 08:25:25;;;;;;;19.53;12.57;;;1.10;99.90;;;;;;4970158;28;20296;-78
2021/01/26 08:27:56;;;;;;;18.53;11.90;;;1.10;99.90;;;;;;4968735;28;20233;-80
2021/01/26 08:30:46;;;;;;;16.37;11.77;;;1.20;99.90;;;;;;4967467;28;20703;-80
2021/01/26 08:33:15;;;;;;;17.93;11.90;;;1.20;99.90;;;;;;4971002;28;20414;-80
2021/01/26 08:35:45;;;;;;;17.07;11.33;;;1.20;99.90;;;;;;4969582;28;20232;-80
2021/01/26 08:38:51;;;;;;;18.23;10.87;;;1.30;99.90;;;;;;4970155;28;20224;-80
2021/01/26 08:41:42;;;;;;;17.00;11.20;;;1.30;99.90;;;;;;4968343;28;20270;-80
2021/01/26 08:44:30;;;;;;;16.43;11.27;;;1.40;99.90;;;;;;4968809;28;20575;-81
2021/01/26 08:46:57;;;;;;;14.93;10.67;;;1.40;99.90;;;;;;4970679;28;20223;-81
2021/01/26 08:49:27;;;;;;;17.00;10.87;;;1.40;99.90;;;;;;4988410;28;20269;-81
2021/01/26 08:51:55;;;;;;;15.53;10.60;;;1.40;99.90;;;;;;4969921;28;20300;-81
2021/01/26 08:54:42;;;;;;;16.10;10.87;;;1.40;99.90;;;;;;4971412;28;20201;-80
2021/01/26 08:57:43;;;;;;;16.63;10.60;;;1.40;99.90;;;;;;4970023;28;20250;-79
2021/01/26 09:00:38;;;;;;;16.83;10.80;;;1.40;99.90;;;;;;4962773;28;20203;-80
2021/01/26 09:03:41;;;;;;;19.23;10.00;;;1.40;99.90;;;;;;4969229;28;20243;-80
2021/01/26 09:06:11;;;;;;;16.60;10.33;;;1.50;99.90;;;;;;4967917;28;20212;-80
2021/01/26 09:08:58;;;;;;;19.23;10.23;;;1.50;99.90;;;;;;4969787;28;20309;-80
2021/01/26 09:11:49;;;;;;;15.87;10.83;;;1.50;99.90;;;;;;4981272;28;20644;-81
2021/01/26 09:14:23;;;;;;;15.70;9.90;;;1.50;99.90;;;;;;4967173;28;20693;-81
2021/01/26 09:16:57;;;;;;;15.00;11.27;;;1.50;99.90;;;;;;4969435;28;20275;-80
2021/01/26 09:19:27;;;;;;;15.10;10.83;;;1.60;99.90;;;;;;4969462;28;20617;-80
2021/01/26 09:21:54;;;;;;;14.87;9.57;;;1.60;99.90;;;;;;4967362;28;20288;-80
2021/01/26 09:24:23;;;;;;;14.23;10.33;;;1.60;99.90;;;;;;4968356;28;20240;-81
2021/01/26 09:26:49;;;;;;;15.33;10.00;;;1.70;99.90;;;;;;4969499;28;20636;-80
2021/01/26 09:29:23;;;;;;;18.03;10.80;;;1.60;99.90;;;;;;4968540;28;20307;-80
2021/01/26 09:31:50;;;;;;;15.87;10.70;;;1.60;99.90;;;;;;4969134;28;20696;-80
2021/01/26 09:34:24;;;;;;;15.23;10.87;;;1.70;99.90;;;;;;4969816;28;20653;-82
2021/01/26 09:36:51;;;;;;;14.53;10.93;;;1.70;99.90;;;;;;4969171;28;20212;-83
2021/01/26 09:39:19;;;;;;;16.37;11.07;;;1.70;99.90;;;;;;4970142;28;20226;-81
2021/01/26 09:41:47;;;;;;;16.53;10.93;;;1.70;99.90;;;;;;4970305;28;20214;-82
2021/01/26 09:44:19;;;;;;;15.80;10.63;;;1.80;99.90;;;;;;4970621;28;20307;-83
2021/01/26 09:46:51;;;;;;;15.70;10.30;;;1.80;99.90;;;;;;4970009;28;20205;-82
2021/01/26 09:49:24;;;;;;;14.87;10.57;;;1.80;99.90;;;;;;4970120;28;20734;-81
2021/01/26 09:51:56;;;;;;;14.03;9.67;;;1.80;99.90;;;;;;4969775;28;20217;-83
2021/01/26 09:54:26;;;;;;;14.77;10.73;;;1.80;99.90;;;;;;4970168;28;20272;-82
2021/01/26 09:56:54;;;;;;;16.77;10.83;;;1.80;99.90;;;;;;4969451;28;20244;-81
2021/01/26 09:59:21;;;;;;;16.20;10.00;;;1.80;99.90;;;;;;4968819;28;20710;-81
2021/01/26 10:01:49;;;;;;;17.27;11.07;;;1.80;99.90;;;;;;4968037;28;20268;-80
2021/01/26 10:04:18;;;;;;;14.87;9.90;;;1.90;99.90;;;;;;4970060;28;20261;-80
2021/01/26 10:06:46;;;;;;;15.57;10.20;;;1.90;99.90;;;;;;4968406;28;20242;-83
2021/01/26 10:09:19;;;;;;;14.43;9.70;;;1.90;99.90;;;;;;4969327;28;20219;-83
2021/01/26 10:11:45;;;;;;;15.80;10.77;;;2.00;99.90;;;;;;4969365;28;20210;-83
2021/01/26 10:14:18;;;;;;;14.60;9.57;;;2.00;99.90;;;;;;4967632;28;20229;-82
2021/01/26 10:16:47;;;;;;;16.13;9.87;;;2.00;99.90;;;;;;4968927;28;20262;-83
2021/01/26 10:19:21;;;;;;;14.17;10.07;;;2.00;99.90;;;;;;4973297;28;20249;-82
2021/01/26 10:21:48;;;;;;;14.37;10.40;;;2.00;99.90;;;;;;4968434;28;20254;-83
2021/01/26 10:24:25;;;;;;;13.67;9.67;;;2.10;99.90;;;;;;4969281;28;20263;-81
2021/01/26 10:27:03;;;;;;;14.20;9.80;;;2.10;99.90;;;;;;4971868;28;20285;-82
2021/01/26 10:29:38;;;;;;;12.27;10.00;;;2.10;99.90;;;;;;4973850;28;20298;-83
2021/01/26 10:32:06;;;;;;;12.90;9.43;;;2.20;99.90;;;;;;4970841;28;20312;-82
2021/01/26 10:34:44;;;;;;;15.27;9.90;;;2.20;99.90;;;;;;4968072;28;20286;-82
2021/01/26 10:37:30;;;;;;;12.97;9.47;;;2.30;99.90;;;;;;4973482;28;20659;-82
2021/01/26 10:40:12;;;;;;;13.43;9.43;;;2.30;99.90;;;;;;4976279;28;20581;-82
2021/01/26 10:42:42;;;;;;;16.97;10.50;;;2.30;99.90;;;;;;4967467;28;20289;-82
2021/01/26 10:45:12;;;;;;;14.17;10.67;;;2.30;99.90;;;;;;4971283;28;20233;-82
2021/01/26 10:47:41;;;;;;;17.70;10.27;;;2.30;99.90;;;;;;4973386;28;20276;-83
2021/01/26 10:50:11;;;;;;;16.83;10.27;;;2.30;99.90;;;;;;4971658;28;20254;-82
2021/01/26 10:52:43;;;;;;;13.67;10.00;;;2.30;99.90;;;;;;4970284;28;20247;-82
2021/01/26 10:55:12;;;;;;;15.27;9.80;;;2.40;99.90;;;;;;4970031;28;20234;-82
2021/01/26 10:57:39;;;;;;;14.63;9.90;;;2.40;99.90;;;;;;4971286;28;20279;-82
2021/01/26 11:00:07;;;;;;;14.77;9.47;;;2.50;99.90;;;;;;4970144;28;20206;-82
2021/01/26 11:02:34;;;;;;;13.77;9.97;;;2.50;99.90;;;;;;4971040;28;20230;-82
2021/01/26 11:05:00;;;;;;;14.60;9.70;;;2.50;99.90;;;;;;4973887;28;20238;-82
2021/01/26 11:07:27;;;;;;;12.17;9.07;;;2.50;99.90;;;;;;4971228;28;20245;-83
2021/01/26 11:09:54;;;;;;;14.63;9.33;;;2.40;99.90;;;;;;4970892;28;20258;-82
2021/01/26 11:12:20;;;;;;;15.40;9.37;;;2.40;99.90;;;;;;4971474;28;20660;-82
2021/01/26 11:14:49;;;;;;;11.97;9.07;;;2.40;99.90;;;;;;4971532;28;20256;-82
2021/01/26 11:17:17;;;;;;;14.37;8.80;;;2.40;99.90;;;;;;4966486;28;20268;-82
2021/01/26 11:19:45;;;;;;;13.60;9.37;;;2.40;99.90;;;;;;4971101;28;20249;-83
2021/01/26 11:22:11;;;;;;;13.87;9.63;;;2.40;99.90;;;;;;4968972;28;20245;-83
2021/01/26 11:24:38;;;;;;;15.87;9.57;;;2.50;99.90;;;;;;4969264;28;20292;-83
2021/01/26 11:27:05;;;;;;;14.63;8.73;;;2.50;99.90;;;;;;4970550;28;20226;-82
2021/01/26 11:29:32;;;;;;;16.30;9.27;;;2.50;99.90;;;;;;4971615;28;20313;-83
2021/01/26 11:31:58;;;;;;;12.33;8.70;;;2.50;99.90;;;;;;4971722;28;20250;-82
2021/01/26 11:34:25;;;;;;;11.77;9.13;;;2.50;99.90;;;;;;4970641;28;20240;-81
2021/01/26 11:36:51;;;;;;;14.57;9.20;;;2.50;99.90;;;;;;4970940;28;20206;-83
2021/01/26 11:39:18;;;;;;;12.17;8.87;;;2.60;99.90;;;;;;4971373;28;20239;-83
2021/01/26 11:41:45;;;;;;;14.83;9.70;;;2.70;99.90;;;;;;4969902;28;20285;-81
2021/01/26 11:44:12;;;;;;;16.03;9.53;;;2.80;99.90;;;;;;4970928;28;20646;-80
2021/01/26 11:46:39;;;;;;;13.53;8.97;;;2.80;99.90;;;;;;4970638;28;20248;-83
2021/01/26 11:49:06;;;;;;;12.37;8.57;;;2.80;99.90;;;;;;4971385;28;20313;-82
2021/01/26 11:51:32;;;;;;;15.60;8.97;;;2.90;99.90;;;;;;4970364;28;20720;-82
2021/01/26 11:53:58;;;;;;;12.43;9.53;;;2.70;99.90;;;;;;4970985;28;20763;-82
2021/01/26 11:56:26;;;;;;;16.63;9.40;;;2.80;99.90;;;;;;4972063;28;20990;-81
2021/01/26 11:58:52;;;;;;;17.20;9.60;;;2.80;99.90;;;;;;4971378;28;20195;-83
2021/01/26 12:01:20;;;;;;;13.57;9.27;;;2.70;99.90;;;;;;4971750;28;20237;-83
2021/01/26 12:03:47;;;;;;;14.33;8.60;;;2.70;99.90;;;;;;4971427;28;20207;-82
2021/01/26 12:06:13;;;;;;;16.73;9.87;;;2.80;99.90;;;;;;4971718;28;20583;-82
2021/01/26 12:08:40;;;;;;;13.03;9.37;;;2.90;99.90;;;;;;4970982;28;20247;-82
2021/01/26 12:11:07;;;;;;;14.90;9.70;;;3.10;99.90;;;;;;4972113;28;20202;-82
2021/01/26 12:13:33;;;;;;;14.00;9.50;;;3.30;99.90;;;;;;4971495;28;20238;-82
2021/01/26 12:16:00;;;;;;;14.13;9.53;;;3.40;99.90;;;;;;4971446;28;20241;-83
2021/01/26 12:18:27;;;;;;;16.77;10.77;;;3.50;99.90;;;;;;5002293;28;20316;-83
2021/01/26 12:20:54;;;;;;;9.17;6.63;;;3.50;99.90;;;;;;4971847;28;20287;-81
2021/01/26 12:23:20;;;;;;;16.50;10.80;;;3.40;99.90;;;;;;4971397;28;20227;-83
2021/01/26 12:25:47;;;;;;;14.03;10.53;;;3.40;99.90;;;;;;4971584;28;20636;-83
2021/01/26 12:28:13;;;;;;;13.80;8.67;;;3.50;99.90;;;;;;4972218;28;20256;-83
2021/01/26 12:30:40;;;;;;;15.10;10.03;;;3.50;99.90;;;;;;4971551;28;20231;-83
2021/01/26 12:33:06;;;;;;;12.97;8.10;;;3.60;99.90;;;;;;4969358;28;20262;-82
2021/01/26 12:35:35;;;;;;;12.87;8.77;;;3.50;99.90;;;;;;4968852;28;20396;-82
2021/01/26 12:38:03;;;;;;;14.23;10.23;;;3.50;99.90;;;;;;4968299;28;20698;-82
2021/01/26 12:40:29;;;;;;;13.37;7.90;;;3.40;99.90;;;;;;4970016;28;20229;-82
2021/01/26 12:42:56;;;;;;;18.43;10.03;;;3.50;99.90;;;;;;4970165;28;20209;-83
2021/01/26 12:45:25;;;;;;;17.00;10.43;;;3.40;99.90;;;;;;4976516;28;20238;-78
2021/01/26 12:47:52;;;;;;;13.97;10.30;;;3.30;99.90;;;;;;4969406;28;20199;-79
2021/01/26 12:50:21;;;;;;;16.77;9.57;;;3.40;99.90;;;;;;4970375;28;20640;-78
2021/01/26 12:52:49;;;;;;;13.63;10.03;;;3.50;99.90;;;;;;4969899;28;20687;-77
2021/01/26 12:55:15;;;;;;;15.47;10.30;;;3.60;99.90;;;;;;4970291;28;20284;-78
2021/01/26 12:57:42;;;;;;;13.83;9.37;;;3.70;99.90;;;;;;4970320;28;20727;-78
2021/01/26 13:00:11;;;;;;;15.17;8.60;;;3.90;99.90;;;;;;4970235;28;20235;-79
2021/01/26 13:02:38;;;;;;;15.13;10.00;;;3.80;99.90;;;;;;4969962;28;20212;-78
2021/01/26 13:05:06;;;;;;;14.27;8.90;;;3.90;99.90;;;;;;4970219;28;20233;-79
2021/01/26 13:07:32;;;;;;;13.63;9.47;;;4.20;99.90;;;;;;4969453;28;20282;-79